createdAt,value
2023-02-05T00:00:20.321Z,73.40
2023-02-05T00:03:08.598Z,73.40
2023-02-05T00:05:36.843Z,73.76
2023-02-05T00:08:05.600Z,73.43
2023-02-05T00:10:33.906Z,73.52
2023-02-05T00:13:02.101Z,73.40
2023-02-05T00:15:30.409Z,73.21
2023-02-05T00:17:58.644Z,73.43
2023-02-05T00:20:27.936Z,73.22
2023-02-05T00:22:56.517Z,73.31
2023-02-05T00:25:27.470Z,72.98
2023-02-05T00:27:55.683Z,73.03
2023-02-05T00:30:24.059Z,73.00
2023-02-05T00:32:52.270Z,72.75
2023-02-05T00:35:20.592Z,72.67
2023-02-05T00:37:48.813Z,72.61
2023-02-05T00:40:19.242Z,72.33
2023-02-05T00:42:46.608Z,72.13
2023-02-05T00:45:15.085Z,72.23
2023-02-05T00:47:43.259Z,72.29
2023-02-05T00:50:11.529Z,72.02
2023-02-05T00:52:39.778Z,71.98
2023-02-05T00:55:08.787Z,71.86
2023-02-05T00:57:36.116Z,71.97
2023-02-05T01:00:03.753Z,71.83
2023-02-05T01:02:32.019Z,71.96
2023-02-05T01:05:00.367Z,71.69
2023-02-05T01:07:28.667Z,71.95
2023-02-05T01:09:57.064Z,71.83
2023-02-05T01:12:25.503Z,71.87
2023-02-05T01:14:53.712Z,71.78
2023-02-05T01:17:22.679Z,71.79
2023-02-05T01:19:50.926Z,71.64
2023-02-05T01:22:19.415Z,71.62
2023-02-05T01:24:47.700Z,71.57
2023-02-05T01:27:15.964Z,71.31
2023-02-05T01:29:44.189Z,71.35
2023-02-05T01:32:12.466Z,71.39
2023-02-05T01:34:40.681Z,71.09
2023-02-05T01:37:09.015Z,70.88
2023-02-05T01:39:37.422Z,71.06
2023-02-05T01:42:16.186Z,71.07
2023-02-05T01:44:44.577Z,71.23
2023-02-05T01:47:12.779Z,70.94
2023-02-05T01:49:42.860Z,70.93
2023-02-05T01:52:16.106Z,70.87
2023-02-05T01:54:46.134Z,70.95
2023-02-05T01:57:18.545Z,70.88
2023-02-05T01:59:47.358Z,71.00
2023-02-05T02:02:15.735Z,70.92
2023-02-05T02:04:47.173Z,70.69
2023-02-05T02:07:19.248Z,70.54
2023-02-05T02:09:49.294Z,70.66
2023-02-05T02:12:22.505Z,70.72
2023-02-05T02:14:54.243Z,70.71
2023-02-05T02:17:22.706Z,70.45
2023-02-05T02:19:56.066Z,70.53
2023-02-05T02:22:37.475Z,70.28
2023-02-05T02:25:28.510Z,70.32
2023-02-05T02:27:59.469Z,70.28
2023-02-05T02:30:30.261Z,70.01
2023-02-05T02:33:06.101Z,69.92
2023-02-05T02:35:41.327Z,70.11
2023-02-05T02:38:15.519Z,70.32
2023-02-05T02:40:45.631Z,70.36
2023-02-05T02:43:18.588Z,70.27
2023-02-05T02:45:51.706Z,70.24
2023-02-05T02:48:23.734Z,70.23
2023-02-05T02:50:53.739Z,70.31
2023-02-05T02:53:25.020Z,70.14
2023-02-05T02:55:54.359Z,70.01
2023-02-05T02:58:24.703Z,69.86
2023-02-05T03:00:54.378Z,69.65
2023-02-05T03:03:24.242Z,69.72
2023-02-05T03:05:53.436Z,69.41
2023-02-05T03:08:24.851Z,69.40
2023-02-05T03:10:56.681Z,69.48
2023-02-05T03:13:25.135Z,69.29
2023-02-05T03:15:57.313Z,69.10
2023-02-05T03:18:25.717Z,69.15
2023-02-05T03:20:55.390Z,69.19
2023-02-05T03:23:23.912Z,69.10
2023-02-05T03:25:52.205Z,69.39
2023-02-05T03:28:23.487Z,68.87
2023-02-05T03:30:53.457Z,69.40
2023-02-05T03:33:31.206Z,68.87
2023-02-05T03:36:09.624Z,68.76
2023-02-05T03:38:56.086Z,68.85
2023-02-05T03:41:51.653Z,68.94
2023-02-05T03:44:51.261Z,68.90
2023-02-05T03:47:30.715Z,68.90
2023-02-05T03:50:04.246Z,68.71
2023-02-05T03:52:35.066Z,68.72
2023-02-05T03:55:08.228Z,68.79
2023-02-05T03:57:42.172Z,68.98
2023-02-05T04:00:14.236Z,68.66
2023-02-05T04:02:42.470Z,68.77
2023-02-05T04:05:11.833Z,68.89
2023-02-05T04:07:40.469Z,68.83
2023-02-05T04:10:10.688Z,68.57
2023-02-05T04:12:39.608Z,68.61
2023-02-05T04:15:10.169Z,68.66
2023-02-05T04:17:39.742Z,68.63
2023-02-05T04:20:10.166Z,68.61
2023-02-05T04:22:38.667Z,68.45
2023-02-05T04:25:08.199Z,68.68
2023-02-05T04:27:37.146Z,68.68
2023-02-05T04:30:07.774Z,68.87
2023-02-05T04:32:38.598Z,68.74
2023-02-05T04:35:07.864Z,68.71
2023-02-05T04:37:36.571Z,68.82
2023-02-05T04:40:07.567Z,68.74
2023-02-05T04:42:35.832Z,68.94
2023-02-05T04:45:05.266Z,68.84
2023-02-05T04:47:33.941Z,68.94
2023-02-05T04:50:02.132Z,68.90
2023-02-05T04:52:30.392Z,68.87
2023-02-05T04:54:58.607Z,69.01
2023-02-05T04:57:26.822Z,68.94
2023-02-05T04:59:55.174Z,68.86
2023-02-05T05:02:23.811Z,69.09
2023-02-05T05:04:51.977Z,69.25
2023-02-05T05:07:20.184Z,69.17
2023-02-05T05:09:48.345Z,69.19
2023-02-05T05:12:16.547Z,69.22
2023-02-05T05:14:44.834Z,69.15
2023-02-05T05:17:14.054Z,69.29
2023-02-05T05:19:42.544Z,69.23
2023-02-05T05:22:10.821Z,69.29
2023-02-05T05:24:39.044Z,69.43
2023-02-05T05:27:07.389Z,69.55
2023-02-05T05:29:37.321Z,69.19
2023-02-05T05:32:06.212Z,69.35
2023-02-05T05:34:34.469Z,69.37
2023-02-05T05:37:02.651Z,69.22
2023-02-05T05:40:00.890Z,69.34
2023-02-05T05:42:47.244Z,69.25
2023-02-05T05:45:15.915Z,69.32
2023-02-05T05:47:44.164Z,69.49
2023-02-05T05:50:12.342Z,69.48
2023-02-05T05:52:40.709Z,69.66
2023-02-05T05:55:09.201Z,69.63
2023-02-05T05:57:37.387Z,69.47
2023-02-05T06:00:07.263Z,69.72
2023-02-05T06:02:43.113Z,69.62
2023-02-05T06:05:11.562Z,69.68
2023-02-05T06:07:39.761Z,69.64
2023-02-05T06:10:08.927Z,69.67
2023-02-05T06:12:37.322Z,69.74
2023-02-05T06:15:07.529Z,69.53
2023-02-05T06:17:35.760Z,69.69
2023-02-05T06:20:04.317Z,69.98
2023-02-05T06:22:32.645Z,70.05
2023-02-05T06:25:01.605Z,70.10
2023-02-05T06:27:30.217Z,70.14
2023-02-05T06:29:58.444Z,70.07
2023-02-05T06:32:26.983Z,69.74
2023-02-05T06:34:55.294Z,69.53
2023-02-05T06:37:28.902Z,69.67
2023-02-05T06:39:59.875Z,69.85
2023-02-05T06:42:28.197Z,69.74
2023-02-05T06:44:56.391Z,69.72
2023-02-05T06:47:24.584Z,69.95
2023-02-05T06:49:52.759Z,69.93
2023-02-05T06:52:21.004Z,69.98
2023-02-05T06:54:49.242Z,70.09
2023-02-05T06:57:17.586Z,69.94
2023-02-05T06:59:45.760Z,69.90
2023-02-05T07:02:14.224Z,69.95
2023-02-05T07:04:42.486Z,69.87
2023-02-05T07:07:10.918Z,70.08
2023-02-05T07:09:39.095Z,70.17
2023-02-05T07:12:08.187Z,70.29
2023-02-05T07:14:37.968Z,70.01
2023-02-05T07:17:06.931Z,70.23
2023-02-05T07:19:35.449Z,70.01
2023-02-05T07:22:03.793Z,70.18
2023-02-05T07:24:32.317Z,69.97
2023-02-05T07:27:00.579Z,69.98
2023-02-05T07:29:29.242Z,70.08
2023-02-05T07:31:57.569Z,69.93
2023-02-05T07:34:25.951Z,69.87
2023-02-05T07:36:54.180Z,69.91
2023-02-05T07:39:22.418Z,69.84
2023-02-05T07:41:52.865Z,70.06
2023-02-05T07:44:27.239Z,69.59
2023-02-05T07:46:55.586Z,69.73
2023-02-05T07:49:23.899Z,69.51
2023-02-05T07:51:52.244Z,69.39
2023-02-05T07:54:20.531Z,69.09
2023-02-05T07:56:48.840Z,69.23
2023-02-05T07:59:17.048Z,68.76
2023-02-05T08:01:45.264Z,68.79
2023-02-05T08:04:13.550Z,68.96
2023-02-05T08:06:42.500Z,68.87
2023-02-05T08:09:11.119Z,68.57
2023-02-05T08:11:39.345Z,68.65
2023-02-05T08:14:07.623Z,68.78
2023-02-05T08:16:35.970Z,68.58
2023-02-05T08:19:04.417Z,68.05
2023-02-05T08:21:32.636Z,67.88
2023-02-05T08:24:01.204Z,67.53
2023-02-05T08:26:29.405Z,67.70
2023-02-05T08:28:57.692Z,67.86
2023-02-05T08:31:26.527Z,67.83
2023-02-05T08:33:59.356Z,67.67
2023-02-05T08:36:27.656Z,67.95
2023-02-05T08:38:55.971Z,67.34
2023-02-05T08:41:24.195Z,67.47
2023-02-05T08:43:52.446Z,67.60
2023-02-05T08:46:23.853Z,67.55
2023-02-05T08:48:52.540Z,67.37
2023-02-05T08:51:22.347Z,66.75
2023-02-05T08:53:50.907Z,66.64
2023-02-05T08:56:20.259Z,66.45
2023-02-05T08:58:48.771Z,65.57
2023-02-05T09:01:18.112Z,65.13
2023-02-05T09:03:46.620Z,65.27
2023-02-05T09:06:16.207Z,64.55
2023-02-05T09:08:44.480Z,63.79
2023-02-05T09:11:13.078Z,63.51
2023-02-05T09:13:41.424Z,62.20
2023-02-05T09:16:11.429Z,61.78
2023-02-05T09:18:39.844Z,61.79
2023-02-05T09:21:08.982Z,60.72
2023-02-05T09:23:37.537Z,59.06
2023-02-05T09:26:06.337Z,58.72
2023-02-05T09:28:35.251Z,58.22
2023-02-05T09:31:07.732Z,57.44
2023-02-05T09:33:35.984Z,57.01
2023-02-05T09:36:08.964Z,57.39
2023-02-05T09:38:37.341Z,57.09
2023-02-05T09:41:10.028Z,57.16
2023-02-05T09:43:46.028Z,58.77
2023-02-05T09:46:19.215Z,59.33
2023-02-05T09:48:49.335Z,59.92
2023-02-05T09:51:20.908Z,59.85
2023-02-05T09:53:53.032Z,60.35
2023-02-05T09:56:21.650Z,60.64
2023-02-05T09:58:52.034Z,60.15
2023-02-05T10:01:24.326Z,60.20
2023-02-05T10:03:56.080Z,59.91
2023-02-05T10:06:34.583Z,59.41
2023-02-05T10:09:09.304Z,58.90
2023-02-05T10:11:43.220Z,59.04
2023-02-05T10:14:18.999Z,59.07
2023-02-05T10:17:08.522Z,58.51
2023-02-05T10:20:00.159Z,58.61
2023-02-05T10:22:32.917Z,59.25
2023-02-05T10:25:33.720Z,59.52
2023-02-05T10:28:08.955Z,59.70
2023-02-05T10:30:42.496Z,59.54
2023-02-05T10:33:18.229Z,59.99
2023-02-05T10:35:51.123Z,59.57
2023-02-05T10:38:23.742Z,59.79
2023-02-05T10:40:55.298Z,59.46
2023-02-05T10:43:26.465Z,58.88
2023-02-05T10:45:55.725Z,58.36
2023-02-05T10:48:30.266Z,58.02
2023-02-05T10:51:01.495Z,58.70
2023-02-05T10:53:30.691Z,57.30
2023-02-05T10:56:00.304Z,57.24
2023-02-05T10:58:40.879Z,57.66
2023-02-05T11:01:14.270Z,57.77
2023-02-05T11:03:48.370Z,58.32
2023-02-05T11:06:17.054Z,58.32
2023-02-05T11:08:45.945Z,57.50
2023-02-05T11:11:21.200Z,57.80
2023-02-05T11:13:52.882Z,56.92
2023-02-05T11:16:21.811Z,57.06
2023-02-05T11:18:57.705Z,56.71
2023-02-05T11:21:46.062Z,56.46
2023-02-05T11:24:23.895Z,55.67
2023-02-05T11:27:11.755Z,56.69
2023-02-05T11:29:40.048Z,56.29
2023-02-05T11:32:19.576Z,56.08
2023-02-05T11:34:48.206Z,56.19
2023-02-05T11:37:18.142Z,56.69
2023-02-05T11:39:47.275Z,56.14
2023-02-05T11:42:20.048Z,57.32
2023-02-05T11:44:51.497Z,56.67
2023-02-05T11:47:24.580Z,56.08
2023-02-05T11:49:53.540Z,56.17
2023-02-05T11:52:26.991Z,54.90
2023-02-05T11:54:55.494Z,55.31
2023-02-05T11:57:34.700Z,55.92
2023-02-05T12:00:20.234Z,55.54
2023-02-05T12:02:51.291Z,55.68
2023-02-05T12:05:23.633Z,55.23
2023-02-05T12:07:55.473Z,55.97
2023-02-05T12:10:30.733Z,55.89
2023-02-05T12:13:05.586Z,56.24
2023-02-05T12:15:36.695Z,56.09
2023-02-05T12:18:13.617Z,56.10
2023-02-05T12:20:46.669Z,56.58
2023-02-05T12:23:39.181Z,56.87
2023-02-05T12:26:25.143Z,57.29
2023-02-05T12:29:03.278Z,57.15
2023-02-05T12:31:44.140Z,57.23
2023-02-05T12:34:23.799Z,57.17
2023-02-05T12:37:12.066Z,57.39
2023-02-05T12:39:44.961Z,57.73
2023-02-05T12:42:29.496Z,58.52
2023-02-05T12:45:07.974Z,58.29
2023-02-05T12:47:48.102Z,58.36
2023-02-05T12:50:39.322Z,58.35
2023-02-05T12:53:20.809Z,58.52
2023-02-05T12:56:04.274Z,58.66
2023-02-05T12:58:41.230Z,58.42
2023-02-05T13:01:12.838Z,58.94
2023-02-05T13:03:43.580Z,58.86
2023-02-05T13:06:15.716Z,58.88
2023-02-05T13:08:46.831Z,58.83
2023-02-05T13:11:18.775Z,59.16
2023-02-05T13:13:53.448Z,59.10
2023-02-05T13:16:23.372Z,59.16
2023-02-05T13:18:57.268Z,59.29
2023-02-05T13:21:44.447Z,59.10
2023-02-05T13:24:34.425Z,59.33
2023-02-05T13:27:32.465Z,59.68
2023-02-05T13:30:01.986Z,59.72
2023-02-05T13:32:33.720Z,59.59
2023-02-05T13:35:01.951Z,59.84
2023-02-05T13:37:45.918Z,59.82
2023-02-05T13:40:34.388Z,59.94
2023-02-05T13:43:40.295Z,60.02
2023-02-05T13:46:37.170Z,59.93
2023-02-05T13:49:27.284Z,60.44
2023-02-05T13:52:07.805Z,60.19
2023-02-05T13:55:03.767Z,60.39
2023-02-05T13:58:01.644Z,60.26
2023-02-05T14:00:30.156Z,59.96
2023-02-05T14:03:04.889Z,60.19
2023-02-05T14:05:35.444Z,59.98
2023-02-05T14:08:04.844Z,59.79
2023-02-05T14:10:35.020Z,59.65
2023-02-05T14:13:12.223Z,59.97
2023-02-05T14:15:42.398Z,59.68
2023-02-05T14:18:13.042Z,60.12
2023-02-05T14:20:43.964Z,60.02
2023-02-05T14:23:20.898Z,59.63
2023-02-05T14:26:11.522Z,59.87
2023-02-05T14:28:51.225Z,59.86
2023-02-05T14:31:45.696Z,59.83
2023-02-05T14:34:47.061Z,60.21
2023-02-05T14:37:44.637Z,60.33
2023-02-05T14:40:22.198Z,60.46
2023-02-05T14:42:53.401Z,60.42
2023-02-05T14:45:26.655Z,59.79
2023-02-05T14:47:55.617Z,60.39
2023-02-05T14:50:26.136Z,60.65
2023-02-05T14:52:56.382Z,60.85
2023-02-05T14:55:30.844Z,60.31
2023-02-05T14:58:02.532Z,60.74
2023-02-05T15:00:33.326Z,60.75
2023-02-05T15:03:25.856Z,60.90
2023-02-05T15:05:58.751Z,60.87
2023-02-05T15:08:39.601Z,60.96
2023-02-05T15:11:13.251Z,60.61
2023-02-05T15:13:41.565Z,60.50
2023-02-05T15:16:19.122Z,60.83
2023-02-05T15:18:48.719Z,61.23
2023-02-05T15:21:22.635Z,61.59
2023-02-05T15:23:55.013Z,61.65
2023-02-05T15:26:28.531Z,61.15
2023-02-05T15:29:03.303Z,61.00
2023-02-05T15:31:40.576Z,60.95
2023-02-05T15:34:30.511Z,61.59
2023-02-05T15:37:02.439Z,61.48
2023-02-05T15:39:35.529Z,61.49
2023-02-05T15:42:05.740Z,61.17
2023-02-05T15:44:35.482Z,61.52
2023-02-05T15:47:07.658Z,60.41
2023-02-05T15:49:40.359Z,60.69
2023-02-05T15:52:14.037Z,60.98
2023-02-05T15:54:42.417Z,60.87
2023-02-05T15:57:18.179Z,60.28
2023-02-05T15:59:46.514Z,61.12
2023-02-05T16:02:18.430Z,60.92
2023-02-05T16:04:53.928Z,60.96
2023-02-05T16:07:24.356Z,60.51
2023-02-05T16:09:55.477Z,61.03
2023-02-05T16:12:23.834Z,61.03
2023-02-05T16:14:59.784Z,60.93
2023-02-05T16:17:33.094Z,60.81
2023-02-05T16:20:12.281Z,61.36
2023-02-05T16:22:43.567Z,61.49
2023-02-05T16:25:23.008Z,61.65
2023-02-05T16:27:52.085Z,61.82
2023-02-05T16:30:25.073Z,62.06
2023-02-05T16:32:54.207Z,61.75
2023-02-05T16:35:26.218Z,62.20
2023-02-05T16:37:54.574Z,62.01
2023-02-05T16:40:34.577Z,62.28
2023-02-05T16:43:18.653Z,61.94
2023-02-05T16:46:21.986Z,62.21
2023-02-05T16:48:51.734Z,62.05
2023-02-05T16:51:37.974Z,62.55
2023-02-05T16:54:30.965Z,62.51
2023-02-05T16:57:04.171Z,62.31
2023-02-05T16:59:37.602Z,62.15
2023-02-05T17:02:06.392Z,62.20
2023-02-05T17:04:37.291Z,62.29
2023-02-05T17:07:16.787Z,61.95
2023-02-05T17:09:45.128Z,61.78
2023-02-05T17:12:37.923Z,61.87
2023-02-05T17:15:26.788Z,61.90
2023-02-05T17:17:56.479Z,61.90
2023-02-05T17:20:26.449Z,61.56
2023-02-05T17:23:11.640Z,62.14
2023-02-05T17:25:42.081Z,62.04
2023-02-05T17:28:15.077Z,62.28
2023-02-05T17:30:44.659Z,62.30
2023-02-05T17:33:16.861Z,62.47
2023-02-05T17:35:45.265Z,62.40
2023-02-05T17:38:13.677Z,62.18
2023-02-05T17:40:42.621Z,62.52
2023-02-05T17:43:11.263Z,62.64
2023-02-05T17:45:41.319Z,62.61
2023-02-05T17:48:09.642Z,62.06
2023-02-05T17:50:40.466Z,62.16
2023-02-05T17:53:13.272Z,62.42
2023-02-05T17:55:41.519Z,62.36
2023-02-05T17:58:09.796Z,61.96
2023-02-05T18:00:38.190Z,61.98
2023-02-05T18:03:06.372Z,61.39
2023-02-05T18:05:34.681Z,62.25
2023-02-05T18:08:03.163Z,62.22
2023-02-05T18:10:32.125Z,62.32
2023-02-05T18:13:00.520Z,62.18
2023-02-05T18:15:34.922Z,62.20
2023-02-05T18:18:03.270Z,62.21
2023-02-05T18:20:31.561Z,62.27
2023-02-05T18:22:59.812Z,62.54
2023-02-05T18:25:28.111Z,62.37
2023-02-05T18:27:56.714Z,62.30
2023-02-05T18:30:25.201Z,62.33
2023-02-05T18:32:53.564Z,62.46
2023-02-05T18:35:21.854Z,62.48
2023-02-05T18:37:50.172Z,62.48
2023-02-05T18:40:18.495Z,62.66
2023-02-05T18:42:46.783Z,62.87
2023-02-05T18:45:15.644Z,62.53
2023-02-05T18:47:43.988Z,62.47
2023-02-05T18:50:12.400Z,62.74
2023-02-05T18:52:44.092Z,62.53
2023-02-05T18:55:12.918Z,62.57
2023-02-05T18:57:40.332Z,62.52
2023-02-05T19:00:11.107Z,62.87
2023-02-05T19:02:40.996Z,62.97
2023-02-05T19:05:10.909Z,62.79
2023-02-05T19:07:39.152Z,62.64
2023-02-05T19:10:08.406Z,62.82
2023-02-05T19:12:36.668Z,62.52
2023-02-05T19:15:06.197Z,62.66
2023-02-05T19:17:34.468Z,63.16
2023-02-05T19:20:02.837Z,62.89
2023-02-05T19:22:31.379Z,63.65
2023-02-05T19:24:59.756Z,63.82
2023-02-05T19:27:28.070Z,64.05
2023-02-05T19:29:56.332Z,63.82
2023-02-05T19:32:24.589Z,63.79
2023-02-05T19:34:54.213Z,63.91
2023-02-05T19:37:22.443Z,63.95
2023-02-05T19:39:50.819Z,64.09
2023-02-05T19:42:19.090Z,64.23
2023-02-05T19:44:47.335Z,64.77
2023-02-05T19:47:15.620Z,64.70
2023-02-05T19:49:43.934Z,64.71
2023-02-05T19:52:12.441Z,64.93
2023-02-05T19:54:40.700Z,65.19
2023-02-05T19:57:09.000Z,65.37
2023-02-05T19:59:37.193Z,65.60
2023-02-05T20:02:05.434Z,66.03
2023-02-05T20:04:33.716Z,65.88
2023-02-05T20:07:02.068Z,66.00
2023-02-05T20:09:35.148Z,65.85
2023-02-05T20:12:04.096Z,65.86
2023-02-05T20:14:31.550Z,66.08
2023-02-05T20:16:59.755Z,66.18
2023-02-05T20:19:28.092Z,66.53
2023-02-05T20:21:56.697Z,66.56
2023-02-05T20:24:27.944Z,66.73
2023-02-05T20:26:56.724Z,67.04
2023-02-05T20:29:43.024Z,67.07
2023-02-05T20:32:11.475Z,67.70
2023-02-05T20:34:44.175Z,67.67
2023-02-05T20:37:12.449Z,67.90
2023-02-05T20:39:43.280Z,68.01
2023-02-05T20:42:12.814Z,68.51
2023-02-05T20:44:42.057Z,68.60
2023-02-05T20:47:12.948Z,68.45
2023-02-05T20:49:42.091Z,68.56
2023-02-05T20:52:11.125Z,68.71
2023-02-05T20:54:40.006Z,68.72
2023-02-05T20:57:09.006Z,68.70
2023-02-05T20:59:37.999Z,68.93
2023-02-05T21:02:06.439Z,68.96
2023-02-05T21:04:36.297Z,68.95
2023-02-05T21:07:04.894Z,69.17
2023-02-05T21:09:33.628Z,69.13
2023-02-05T21:12:02.111Z,69.40
2023-02-05T21:14:31.010Z,69.66
2023-02-05T21:17:00.100Z,69.56
2023-02-05T21:19:28.525Z,69.58
2023-02-05T21:21:57.077Z,69.73
2023-02-05T21:24:25.394Z,69.72
2023-02-05T21:26:53.743Z,69.71
2023-02-05T21:29:22.151Z,69.79
2023-02-05T21:31:54.619Z,69.91
2023-02-05T21:34:24.843Z,69.85
2023-02-05T21:36:54.418Z,70.03
2023-02-05T21:39:23.119Z,70.04
2023-02-05T21:41:52.621Z,69.97
2023-02-05T21:44:21.234Z,70.02
2023-02-05T21:46:49.513Z,70.04
2023-02-05T21:49:17.798Z,69.76
2023-02-05T21:51:47.468Z,70.07
2023-02-05T21:54:16.024Z,70.43
2023-02-05T21:56:44.760Z,70.30
2023-02-05T21:59:15.448Z,70.53
2023-02-05T22:01:43.731Z,70.47
2023-02-05T22:04:14.450Z,70.22
2023-02-05T22:06:43.129Z,70.57
2023-02-05T22:09:14.382Z,70.96
2023-02-05T22:11:42.972Z,71.02
2023-02-05T22:14:11.561Z,71.21
2023-02-05T22:16:39.920Z,71.41
2023-02-05T22:19:09.123Z,71.45
2023-02-05T22:21:39.678Z,71.83
2023-02-05T22:24:10.490Z,71.72
2023-02-05T22:26:40.817Z,71.82
2023-02-05T22:29:12.259Z,72.04
2023-02-05T22:31:40.751Z,72.36
2023-02-05T22:34:09.013Z,72.28
2023-02-05T22:36:37.455Z,72.02
2023-02-05T22:39:06.550Z,72.09
2023-02-05T22:41:34.485Z,72.22
2023-02-05T22:44:03.843Z,72.19
2023-02-05T22:46:33.511Z,71.94
2023-02-05T22:49:02.963Z,72.30
2023-02-05T22:51:32.985Z,72.46
2023-02-05T22:54:01.375Z,72.66
2023-02-05T22:56:30.047Z,72.48
2023-02-05T22:58:59.663Z,72.59
2023-02-05T23:01:31.792Z,72.44
2023-02-05T23:04:02.067Z,72.86
2023-02-05T23:06:32.335Z,72.81
2023-02-05T23:09:01.906Z,73.19
2023-02-05T23:11:31.157Z,72.93
2023-02-05T23:14:00.210Z,73.16
2023-02-05T23:16:29.839Z,73.03
2023-02-05T23:19:00.967Z,72.82
2023-02-05T23:21:31.332Z,73.02
2023-02-05T23:23:59.548Z,72.77
2023-02-05T23:26:30.281Z,72.95
2023-02-05T23:28:59.863Z,73.07
2023-02-05T23:31:29.569Z,73.09
2023-02-05T23:33:57.864Z,73.34
2023-02-05T23:36:26.315Z,73.03
2023-02-05T23:38:54.505Z,73.53
2023-02-05T23:41:34.921Z,73.35
2023-02-05T23:44:09.745Z,73.08
2023-02-05T23:46:38.977Z,73.21
2023-02-05T23:49:07.565Z,73.13
2023-02-05T23:51:36.031Z,73.21
2023-02-05T23:54:05.008Z,73.13
2023-02-05T23:56:33.352Z,73.12
2023-02-05T23:59:01.891Z,72.93
